createdAt,value
2019-01-08T00:00:15.327Z,100.00
2019-01-08T00:02:43.703Z,100.00
2019-01-08T00:05:12.083Z,100.00
2019-01-08T00:07:40.453Z,100.00
2019-01-08T00:10:08.840Z,100.00
2019-01-08T00:12:37.461Z,100.00
2019-01-08T00:15:12.608Z,100.00
2019-01-08T00:17:40.975Z,100.00
2019-01-08T00:20:10.294Z,100.00
2019-01-08T00:22:39.576Z,100.00
2019-01-08T00:25:07.954Z,100.00
2019-01-08T00:27:36.331Z,100.00
2019-01-08T00:30:07.046Z,100.00
2019-01-08T00:32:35.428Z,100.00
2019-01-08T00:35:03.808Z,100.00
2019-01-08T00:37:32.180Z,100.00
2019-01-08T00:40:00.576Z,100.00
2019-01-08T00:42:28.948Z,100.00
2019-01-08T00:44:57.341Z,100.00
2019-01-08T00:47:25.721Z,100.00
2019-01-08T00:49:54.108Z,100.00
2019-01-08T00:52:22.476Z,100.00
2019-01-08T00:54:50.846Z,100.00
2019-01-08T00:57:19.234Z,100.00
2019-01-08T00:59:47.602Z,100.00
2019-01-08T01:02:15.983Z,100.00
2019-01-08T01:04:44.360Z,100.00
2019-01-08T01:07:12.746Z,100.00
2019-01-08T01:09:41.124Z,100.00
2019-01-08T01:12:09.506Z,100.00
2019-01-08T01:14:37.873Z,100.00
2019-01-08T01:17:06.576Z,100.00
2019-01-08T01:19:34.946Z,100.00
2019-01-08T01:22:03.327Z,100.00
2019-01-08T01:24:31.704Z,100.00
2019-01-08T01:27:00.193Z,100.00
2019-01-08T01:29:28.571Z,100.00
2019-01-08T01:31:56.956Z,100.00
2019-01-08T01:34:25.328Z,100.00
2019-01-08T01:36:53.712Z,100.00
2019-01-08T01:39:22.089Z,100.00
2019-01-08T01:41:50.703Z,100.00
2019-01-08T01:44:19.078Z,100.00
2019-01-08T01:46:47.458Z,100.00
2019-01-08T01:49:15.844Z,100.00
2019-01-08T01:51:44.214Z,100.00
2019-01-08T01:54:12.602Z,100.00
2019-01-08T01:56:41.903Z,100.00
2019-01-08T01:59:10.279Z,100.00
2019-01-08T02:01:38.896Z,100.00
2019-01-08T02:04:07.671Z,100.00
2019-01-08T02:06:36.061Z,100.00
2019-01-08T02:09:05.825Z,100.00
2019-01-08T02:11:34.191Z,100.00
2019-01-08T02:14:02.583Z,100.00
2019-01-08T02:16:31.197Z,100.00
2019-01-08T02:18:59.580Z,100.00
2019-01-08T02:21:27.979Z,100.00
2019-01-08T02:23:56.359Z,100.00
2019-01-08T02:26:24.737Z,100.00
2019-01-08T02:28:53.122Z,100.00
2019-01-08T02:31:21.499Z,100.00
2019-01-08T02:33:49.871Z,100.00
2019-01-08T02:36:18.262Z,100.00
2019-01-08T02:38:48.549Z,100.00
2019-01-08T02:41:17.254Z,100.00
2019-01-08T02:43:45.966Z,99.62
2019-01-08T02:46:14.402Z,99.82
2019-01-08T02:48:42.884Z,100.00
2019-01-08T02:51:11.263Z,100.00
2019-01-08T02:53:39.640Z,100.00
2019-01-08T02:56:08.030Z,100.00
2019-01-08T02:58:36.405Z,100.00
2019-01-08T03:18:24.902Z,100.00
2019-01-08T03:20:53.374Z,99.51
2019-01-08T03:23:21.740Z,99.58
2019-01-08T03:25:50.134Z,100.00
2019-01-08T03:35:27.450Z,100.00
2019-01-08T03:37:55.829Z,100.00
2019-01-08T03:40:24.206Z,100.00
2019-01-08T03:42:52.583Z,99.97
2019-01-08T03:45:20.956Z,99.45
2019-01-08T03:47:49.342Z,99.92
2019-01-08T03:50:17.715Z,99.84
2019-01-08T03:52:46.109Z,99.39
2019-01-08T03:55:14.477Z,98.40
2019-01-08T03:57:43.092Z,97.93
2019-01-08T04:00:12.298Z,97.69
2019-01-08T04:02:40.919Z,97.14
2019-01-08T04:05:09.325Z,96.58
2019-01-08T04:11:33.044Z,96.64
2019-01-08T04:14:01.431Z,97.14
2019-01-08T04:16:29.804Z,96.68
2019-01-08T04:18:58.189Z,96.71
2019-01-08T04:39:30.630Z,95.91
2019-01-08T04:41:59.237Z,96.40
2019-01-08T04:44:27.625Z,96.05
2019-01-08T04:46:55.991Z,95.50
2019-01-08T04:49:24.382Z,94.72
2019-01-08T04:51:52.763Z,94.39
2019-01-08T04:54:21.173Z,95.45
2019-01-08T04:56:49.633Z,95.22
2019-01-08T04:59:17.999Z,95.57
2019-01-08T05:01:46.619Z,94.96
2019-01-08T05:04:14.989Z,96.01
2019-01-08T05:06:43.366Z,95.22
2019-01-08T05:09:11.750Z,94.81
2019-01-08T05:11:40.124Z,94.10
2019-01-08T05:14:08.500Z,94.79
2019-01-08T05:16:36.900Z,93.69
2019-01-08T05:19:05.263Z,94.58
2019-01-08T05:21:33.651Z,94.99
2019-01-08T05:24:02.024Z,94.59
2019-01-08T05:26:30.587Z,94.63
2019-01-08T05:28:58.977Z,94.41
2019-01-08T05:31:27.373Z,94.43
2019-01-08T05:33:56.938Z,94.07
2019-01-08T05:36:25.334Z,93.34
2019-01-08T05:38:53.709Z,93.75
2019-01-08T05:41:23.078Z,93.73
2019-01-08T05:43:51.449Z,93.25
2019-01-08T05:46:19.838Z,94.23
2019-01-08T05:48:48.216Z,93.70
2019-01-08T05:51:16.880Z,93.16
2019-01-08T05:53:45.261Z,92.64
2019-01-08T05:56:13.652Z,92.59
2019-01-08T05:58:42.027Z,93.31
2019-01-08T06:01:10.394Z,92.64
2019-01-08T06:03:38.774Z,92.66
2019-01-08T06:06:07.186Z,92.84
2019-01-08T06:08:35.545Z,92.16
2019-01-08T06:11:03.928Z,92.95
2019-01-08T06:13:32.305Z,92.62
2019-01-08T06:16:00.681Z,92.43
2019-01-08T06:18:29.085Z,92.49
2019-01-08T06:20:57.470Z,91.70
2019-01-08T06:23:25.847Z,91.34
2019-01-08T06:25:54.234Z,91.90
2019-01-08T06:28:22.603Z,91.88
2019-01-08T06:30:50.977Z,91.69
2019-01-08T06:33:19.347Z,91.55
2019-01-08T06:35:47.734Z,90.56
2019-01-08T06:38:16.114Z,90.74
2019-01-08T06:40:44.499Z,90.99
2019-01-08T06:43:12.859Z,90.77
2019-01-08T06:45:41.239Z,91.18
2019-01-08T06:48:09.606Z,89.78
2019-01-08T06:50:37.988Z,89.67
2019-01-08T06:53:06.361Z,89.48
2019-01-08T06:55:34.739Z,90.09
2019-01-08T06:58:03.108Z,90.15
2019-01-08T07:00:33.445Z,89.98
2019-01-08T07:03:01.584Z,90.00
2019-01-08T07:05:29.969Z,90.38
2019-01-08T07:07:58.336Z,89.79
2019-01-08T07:10:26.711Z,90.32
2019-01-08T07:12:56.053Z,89.59
2019-01-08T07:15:24.417Z,89.23
2019-01-08T07:17:52.796Z,89.64
2019-01-08T07:20:21.169Z,89.14
2019-01-08T07:22:49.553Z,89.00
2019-01-08T07:25:17.941Z,89.69
2019-01-08T07:27:46.347Z,89.45
2019-01-08T07:30:14.751Z,89.85
2019-01-08T07:32:43.134Z,88.80
2019-01-08T07:35:12.481Z,88.69
2019-01-08T07:38:02.107Z,88.67
2019-01-08T07:40:30.488Z,88.68
2019-01-08T07:42:58.876Z,88.78
2019-01-08T07:45:27.249Z,88.45
2019-01-08T07:47:55.716Z,87.86
2019-01-08T07:50:24.105Z,88.70
2019-01-08T07:52:53.434Z,89.33
2019-01-08T07:55:21.807Z,90.08
2019-01-08T07:57:50.446Z,91.56
2019-01-08T08:00:18.797Z,91.29
2019-01-08T08:02:47.244Z,90.87
2019-01-08T08:05:15.612Z,90.27
2019-01-08T08:07:43.988Z,90.38
2019-01-08T08:10:18.201Z,89.01
2019-01-08T08:12:46.585Z,89.91
2019-01-08T08:15:14.949Z,88.32
2019-01-08T08:17:43.344Z,88.68
2019-01-08T08:20:14.684Z,88.68
2019-01-08T08:22:43.067Z,89.06
2019-01-08T08:25:11.455Z,90.03
2019-01-08T08:27:40.077Z,90.01
2019-01-08T08:30:10.012Z,89.59
2019-01-08T08:32:38.407Z,88.89
2019-01-08T08:35:08.768Z,89.90
2019-01-08T08:37:39.685Z,90.41
2019-01-08T08:40:08.375Z,91.39
2019-01-08T08:42:36.737Z,92.01
2019-01-08T08:45:08.573Z,93.21
2019-01-08T08:47:36.994Z,93.45
2019-01-08T08:50:06.624Z,93.72
2019-01-08T08:52:35.024Z,94.20
2019-01-08T08:55:03.465Z,94.23
2019-01-08T08:57:33.329Z,94.32
2019-01-08T09:00:01.700Z,94.05
2019-01-08T09:02:30.081Z,93.87
2019-01-08T09:04:58.467Z,93.68
2019-01-08T09:07:26.837Z,92.99
2019-01-08T09:09:55.446Z,92.41
2019-01-08T09:12:23.828Z,92.37
2019-01-08T09:14:52.206Z,91.59
2019-01-08T09:17:20.586Z,91.67
2019-01-08T09:19:48.957Z,91.09
2019-01-08T09:22:17.345Z,90.78
2019-01-08T09:24:45.709Z,90.07
2019-01-08T09:27:14.096Z,89.57
2019-01-08T09:29:42.468Z,88.49
2019-01-08T09:32:10.862Z,88.91
2019-01-08T09:34:39.305Z,88.05
2019-01-08T09:37:07.688Z,87.90
2019-01-08T09:39:36.055Z,88.01
2019-01-08T09:42:04.506Z,87.64
2019-01-08T09:44:33.112Z,87.22
2019-01-08T09:47:01.496Z,87.32
2019-01-08T09:49:29.870Z,87.86
2019-01-08T09:51:58.271Z,87.46
2019-01-08T09:54:26.651Z,88.37
2019-01-08T09:56:55.014Z,90.61
2019-01-08T09:59:23.411Z,92.73
2019-01-08T10:01:51.801Z,93.15
2019-01-08T10:04:20.187Z,93.58
2019-01-08T10:06:48.558Z,93.90
2019-01-08T10:09:16.945Z,93.12
2019-01-08T10:11:45.317Z,93.37
2019-01-08T10:14:14.520Z,93.70
2019-01-08T10:16:42.892Z,93.42
2019-01-08T10:19:11.275Z,92.62
2019-01-08T10:21:39.644Z,92.75
2019-01-08T10:24:08.034Z,92.79
2019-01-08T10:26:36.414Z,93.48
2019-01-08T10:29:04.818Z,94.17
2019-01-08T10:31:33.200Z,93.97
2019-01-08T10:34:01.576Z,93.24
2019-01-08T10:36:29.963Z,92.36
2019-01-08T10:38:58.334Z,92.89
2019-01-08T10:41:26.712Z,92.32
2019-01-08T10:43:55.074Z,91.09
2019-01-08T10:46:23.453Z,90.77
2019-01-08T10:48:51.839Z,90.67
2019-01-08T10:51:20.222Z,90.78
2019-01-08T10:53:48.826Z,89.50
2019-01-08T10:56:17.203Z,89.50
2019-01-08T10:58:45.577Z,89.46
2019-01-08T11:01:13.941Z,90.04
2019-01-08T11:03:42.345Z,89.50
2019-01-08T11:06:10.707Z,89.60
2019-01-08T11:08:39.103Z,89.31
2019-01-08T11:11:07.483Z,89.54
2019-01-08T11:13:36.118Z,90.30
2019-01-08T11:16:04.499Z,89.76
2019-01-08T11:18:32.875Z,90.01
2019-01-08T11:21:01.253Z,90.18
2019-01-08T11:23:29.632Z,90.00
2019-01-08T11:25:57.998Z,90.40
2019-01-08T11:28:26.386Z,90.47
2019-01-08T11:30:54.766Z,90.60
2019-01-08T11:33:23.144Z,91.60
2019-01-08T11:35:51.582Z,91.22
2019-01-08T11:38:19.965Z,91.54
2019-01-08T11:40:48.369Z,91.70
2019-01-08T11:43:16.746Z,90.80
2019-01-08T11:45:45.126Z,90.34
2019-01-08T11:48:14.522Z,89.98
2019-01-08T11:50:42.906Z,90.13
2019-01-08T11:53:11.515Z,91.06
2019-01-08T11:55:39.892Z,90.46
2019-01-08T11:58:08.264Z,91.17
2019-01-08T12:00:36.639Z,89.97
2019-01-08T12:03:05.022Z,89.31
2019-01-08T12:05:33.393Z,89.42
2019-01-08T12:08:01.768Z,88.41
2019-01-08T12:10:32.067Z,89.65
2019-01-08T12:13:00.449Z,89.85
2019-01-08T12:15:28.824Z,89.23
2019-01-08T12:17:57.222Z,88.86
2019-01-08T12:20:25.606Z,88.55
2019-01-08T12:22:54.287Z,87.40
2019-01-08T12:25:22.668Z,87.08
2019-01-08T12:27:51.040Z,86.99
2019-01-08T12:30:19.420Z,86.33
2019-01-08T12:32:47.811Z,85.97
2019-01-08T12:35:16.191Z,85.28
2019-01-08T12:37:44.568Z,86.17
2019-01-08T12:40:13.017Z,85.68
2019-01-08T12:42:41.661Z,86.09
2019-01-08T12:45:10.013Z,85.21
2019-01-08T12:47:38.394Z,86.15
2019-01-08T12:50:08.012Z,85.12
2019-01-08T12:52:36.389Z,85.06
2019-01-08T12:55:05.009Z,85.02
2019-01-08T12:57:33.388Z,84.51
2019-01-08T13:00:01.757Z,84.68
2019-01-08T13:02:30.132Z,84.10
2019-01-08T13:04:58.733Z,84.30
2019-01-08T13:07:27.344Z,84.35
2019-01-08T13:09:55.718Z,84.74
2019-01-08T13:12:24.110Z,85.10
2019-01-08T13:14:52.599Z,85.36
2019-01-08T13:17:20.970Z,85.36
2019-01-08T13:19:50.339Z,85.59
2019-01-08T13:22:18.829Z,86.23
2019-01-08T13:24:47.285Z,85.75
2019-01-08T13:27:15.667Z,85.85
2019-01-08T13:29:44.052Z,87.13
2019-01-08T13:32:12.437Z,89.25
2019-01-08T13:34:40.879Z,91.49
2019-01-08T13:37:09.260Z,92.99
2019-01-08T13:39:37.638Z,93.18
2019-01-08T13:42:06.008Z,93.30
2019-01-08T13:44:34.392Z,93.45
2019-01-08T13:47:02.761Z,92.42
2019-01-08T13:49:31.149Z,92.47
2019-01-08T13:51:59.527Z,92.71
2019-01-08T13:54:27.912Z,93.16
2019-01-08T13:56:56.278Z,94.42
2019-01-08T13:59:24.723Z,96.32
2019-01-08T14:01:53.091Z,96.68
2019-01-08T14:04:21.493Z,97.37
2019-01-08T14:06:50.862Z,98.34
2019-01-08T14:09:20.161Z,97.92
2019-01-08T14:11:48.541Z,98.38
2019-01-08T14:14:16.914Z,98.75
2019-01-08T14:16:45.317Z,98.23
2019-01-08T14:19:13.693Z,97.28
2019-01-08T14:21:42.068Z,97.79
2019-01-08T14:24:10.443Z,98.25
2019-01-08T14:26:39.059Z,98.55
2019-01-08T14:29:07.439Z,98.49
2019-01-08T14:31:36.159Z,98.39
2019-01-08T14:34:04.612Z,98.39
2019-01-08T14:36:32.995Z,99.82
2019-01-08T14:39:01.365Z,99.38
2019-01-08T14:41:29.739Z,100.00
2019-01-08T14:43:58.122Z,100.00
2019-01-08T14:46:26.492Z,99.34
2019-01-08T14:48:54.873Z,100.00
2019-01-08T14:51:23.489Z,100.00
2019-01-08T14:53:52.831Z,100.00
2019-01-08T14:56:21.202Z,100.00
2019-01-08T14:58:49.589Z,100.00
2019-01-08T15:01:19.839Z,100.00
2019-01-08T15:03:48.221Z,100.00
2019-01-08T15:06:16.659Z,100.00
2019-01-08T15:08:45.068Z,100.00
2019-01-08T15:11:13.416Z,100.00
2019-01-08T15:13:41.843Z,100.00
2019-01-08T15:16:10.238Z,99.69
2019-01-08T15:18:38.620Z,99.68
2019-01-08T15:21:07.954Z,99.06
2019-01-08T15:23:36.350Z,98.17
2019-01-08T15:26:04.725Z,97.04
2019-01-08T15:28:33.289Z,98.20
2019-01-08T15:31:01.655Z,97.16
2019-01-08T15:33:30.028Z,96.94
2019-01-08T15:35:58.409Z,97.25
2019-01-08T15:38:26.783Z,97.34
2019-01-08T15:40:55.163Z,96.94
2019-01-08T15:43:24.558Z,96.47
2019-01-08T15:45:52.939Z,96.92
2019-01-08T15:48:21.329Z,95.55
2019-01-08T15:50:55.711Z,95.72
2019-01-08T15:53:24.103Z,95.37
2019-01-08T15:55:52.477Z,94.94
2019-01-08T15:58:20.848Z,94.79
2019-01-08T16:00:49.302Z,96.37
2019-01-08T16:03:17.668Z,95.79
2019-01-08T16:05:51.790Z,96.17
2019-01-08T16:08:20.165Z,94.76
2019-01-08T16:10:49.469Z,94.66
2019-01-08T16:13:18.763Z,93.62
2019-01-08T16:15:47.217Z,94.14
2019-01-08T16:18:18.614Z,94.28
2019-01-08T16:20:46.995Z,93.69
2019-01-08T16:23:17.290Z,93.46
2019-01-08T16:25:45.673Z,92.89
2019-01-08T16:28:14.043Z,93.37
2019-01-08T16:30:43.454Z,93.49
2019-01-08T16:33:16.176Z,93.97
2019-01-08T16:35:42.898Z,94.37
2019-01-08T16:38:11.269Z,94.74
2019-01-08T16:40:39.912Z,93.96
2019-01-08T16:43:08.285Z,93.17
2019-01-08T16:45:36.834Z,93.24
2019-01-08T16:48:06.132Z,93.62
2019-01-08T16:50:36.448Z,92.71
2019-01-08T16:53:04.825Z,92.03
2019-01-08T16:55:33.212Z,92.06
2019-01-08T16:58:01.660Z,90.87
2019-01-08T17:00:31.245Z,89.69
2019-01-08T17:02:59.845Z,89.90
2019-01-08T17:05:29.157Z,90.10
2019-01-08T17:07:57.531Z,89.79
2019-01-08T17:10:25.913Z,89.08
2019-01-08T17:13:00.138Z,88.61
2019-01-08T17:15:29.429Z,88.72
2019-01-08T17:17:57.805Z,89.12
2019-01-08T17:20:26.223Z,89.43
2019-01-08T17:22:54.604Z,88.81
2019-01-08T17:25:22.993Z,88.94
2019-01-08T17:27:51.369Z,89.10
2019-01-08T17:30:19.823Z,89.25
2019-01-08T17:32:48.231Z,89.07
2019-01-08T17:35:16.608Z,88.77
2019-01-08T17:37:45.051Z,87.55
2019-01-08T17:40:14.427Z,87.11
2019-01-08T17:42:42.798Z,86.91
2019-01-08T17:45:11.458Z,87.13
2019-01-08T17:47:39.822Z,86.54
2019-01-08T17:50:08.534Z,86.37
2019-01-08T17:52:36.908Z,86.09
2019-01-08T17:55:05.720Z,85.48
2019-01-08T17:57:34.086Z,85.92
2019-01-08T18:00:02.467Z,86.88
2019-01-08T18:02:31.792Z,86.61
2019-01-08T18:05:00.177Z,86.52
2019-01-08T18:07:28.557Z,86.80
2019-01-08T18:09:56.966Z,86.64
2019-01-08T18:12:25.318Z,86.88
2019-01-08T18:14:53.818Z,86.38
2019-01-08T18:17:23.267Z,85.51
2019-01-08T18:19:51.636Z,85.33
2019-01-08T18:22:20.991Z,85.60
2019-01-08T18:24:49.440Z,84.94
2019-01-08T18:27:17.815Z,84.89
2019-01-08T18:29:47.138Z,84.83
2019-01-08T18:32:15.549Z,84.57
2019-01-08T18:34:44.127Z,84.31
2019-01-08T18:37:12.506Z,83.61
2019-01-08T18:39:41.049Z,83.14
2019-01-08T18:42:09.435Z,83.13
2019-01-08T18:44:38.043Z,83.42
2019-01-08T18:47:06.432Z,82.85
2019-01-08T18:49:34.808Z,82.72
2019-01-08T18:52:03.439Z,83.18
2019-01-08T18:54:31.817Z,82.88
2019-01-08T18:57:00.431Z,82.28
2019-01-08T18:59:28.811Z,82.81
2019-01-08T19:01:57.195Z,81.92
2019-01-08T19:04:25.567Z,82.54
2019-01-08T19:06:53.942Z,83.32
2019-01-08T19:09:33.341Z,83.68
2019-01-08T19:12:01.711Z,83.79
2019-01-08T19:14:32.738Z,84.05
2019-01-08T19:17:02.097Z,84.86
2019-01-08T19:19:30.471Z,83.87
2019-01-08T19:22:00.841Z,84.07
2019-01-08T19:24:29.180Z,84.61
2019-01-08T19:26:58.592Z,85.49
2019-01-08T19:29:27.140Z,85.56
2019-01-08T19:31:55.489Z,86.99
2019-01-08T19:34:23.872Z,89.31
2019-01-08T19:36:52.245Z,92.14
2019-01-08T19:39:20.617Z,93.50
2019-01-08T19:41:49.908Z,94.72
2019-01-08T19:44:18.296Z,94.97
2019-01-08T19:46:46.691Z,94.57
2019-01-08T19:49:15.084Z,93.71
2019-01-08T19:51:45.643Z,94.93
2019-01-08T19:54:14.028Z,93.33
2019-01-08T19:56:43.734Z,91.44
2019-01-08T19:59:12.282Z,91.13
2019-01-08T20:01:41.616Z,90.28
2019-01-08T20:04:17.731Z,89.23
2019-01-08T20:06:41.420Z,87.46
2019-01-08T20:09:11.722Z,88.58
2019-01-08T20:11:40.097Z,86.80
2019-01-08T20:14:08.481Z,86.63
2019-01-08T20:16:36.855Z,86.19
2019-01-08T20:19:05.298Z,86.03
2019-01-08T20:21:33.679Z,85.78
2019-01-08T20:24:06.471Z,85.52
2019-01-08T20:26:32.179Z,85.44
2019-01-08T20:29:00.767Z,85.91
2019-01-08T20:31:30.084Z,84.83
2019-01-08T20:33:58.476Z,85.53
2019-01-08T20:36:26.860Z,85.16
2019-01-08T20:38:55.242Z,84.58
2019-01-08T20:41:23.626Z,84.52
2019-01-08T20:43:53.004Z,84.84
2019-01-08T20:46:22.334Z,85.07
2019-01-08T20:48:50.722Z,85.01
2019-01-08T20:51:19.368Z,85.79
2019-01-08T20:53:47.745Z,85.65
2019-01-08T20:56:16.193Z,85.28
2019-01-08T20:58:44.582Z,85.30
2019-01-08T21:01:12.976Z,85.26
2019-01-08T21:03:41.382Z,84.91
2019-01-08T21:06:15.683Z,85.33
2019-01-08T21:08:44.108Z,85.77
2019-01-08T21:11:13.200Z,85.93
2019-01-08T21:13:41.578Z,87.27
2019-01-08T21:16:09.960Z,87.65
2019-01-08T21:18:38.399Z,87.58
2019-01-08T21:21:06.736Z,87.29
2019-01-08T21:23:35.360Z,87.18
2019-01-08T21:26:03.728Z,87.28
2019-01-08T21:28:32.117Z,87.48
2019-01-08T21:31:00.503Z,87.68
2019-01-08T21:33:29.796Z,88.32
2019-01-08T21:35:59.123Z,88.61
2019-01-08T21:38:27.548Z,88.24
2019-01-08T21:40:56.879Z,87.75
2019-01-08T21:43:25.262Z,87.65
2019-01-08T21:45:53.901Z,88.35
2019-01-08T21:48:22.490Z,88.29
2019-01-08T21:50:50.888Z,88.53
2019-01-08T21:53:19.244Z,88.66
2019-01-08T21:55:47.612Z,88.89
2019-01-08T21:58:15.994Z,89.38
2019-01-08T22:00:44.366Z,89.02
2019-01-08T22:03:12.763Z,89.14
2019-01-08T22:05:41.132Z,89.12
2019-01-08T22:08:09.517Z,89.09
2019-01-08T22:10:37.891Z,89.65
2019-01-08T22:13:06.273Z,90.42
2019-01-08T22:15:34.648Z,90.57
2019-01-08T22:18:03.025Z,90.68
2019-01-08T22:20:31.404Z,91.12
2019-01-08T22:22:59.796Z,90.24
2019-01-08T22:25:28.487Z,89.62
2019-01-08T22:27:56.934Z,90.17
2019-01-08T22:30:25.328Z,90.34
2019-01-08T22:32:53.770Z,89.52
2019-01-08T22:35:22.216Z,89.57
2019-01-08T22:37:50.592Z,89.56
2019-01-08T22:40:18.969Z,89.51
2019-01-08T22:42:47.340Z,89.56
2019-01-08T22:45:15.793Z,89.44
2019-01-08T22:47:44.254Z,89.42
2019-01-08T22:50:12.693Z,89.25
2019-01-08T22:52:41.071Z,90.29
2019-01-08T22:55:09.527Z,89.87
2019-01-08T22:57:37.972Z,90.48
2019-01-08T23:00:29.814Z,91.14
2019-01-08T23:02:58.212Z,91.02
2019-01-08T23:05:26.587Z,90.89
2019-01-08T23:07:54.974Z,90.52
2019-01-08T23:10:23.349Z,90.53
2019-01-08T23:12:51.966Z,91.17
2019-01-08T23:15:20.722Z,92.11
2019-01-08T23:17:49.333Z,92.02
2019-01-08T23:20:18.013Z,92.20
2019-01-08T23:22:46.659Z,92.21
2019-01-08T23:25:15.040Z,92.61
2019-01-08T23:27:43.436Z,92.56
2019-01-08T23:30:11.949Z,91.45
2019-01-08T23:32:40.337Z,91.50
2019-01-08T23:35:08.862Z,91.37
2019-01-08T23:37:37.261Z,91.31
2019-01-08T23:40:07.837Z,91.83
2019-01-08T23:42:36.217Z,92.61
2019-01-08T23:45:05.647Z,92.92
2019-01-08T23:47:34.018Z,92.71
2019-01-08T23:50:02.466Z,93.88
2019-01-08T23:52:33.893Z,94.50
2019-01-08T23:55:04.875Z,94.92
2019-01-08T23:57:36.438Z,94.71
